This is the latest recevied weather packets stored in our database for station/object IW5CTE-13. If no packets are shown the sender has not sent any weather packets the latest 10 day(s).
| Time | Temp. | Humidity | Pressure | Rain* | Wind** | Luminosity | Snow |
|---|---|---|---|---|---|---|---|
| 1777897652 | 21.11° C | 61% | 1019.7 hPa | - | - | - | - |
| 1777897053 | 21.11° C | 59% | 1019.7 hPa | - | - | - | - |
| 1777896452 | 21.11° C | 62% | 1019.8 hPa | - | - | - | - |
| 1777895852 | 21.67° C | 60% | 1019.7 hPa | - | - | - | - |
| 1777895253 | 21.67° C | 60% | 1019.7 hPa | - | - | - | - |
| 1777894652 | 21.67° C | 61% | 1019.8 hPa | - | - | - | - |
| 1777894053 | 21.11° C | 64% | 1019.9 hPa | - | - | - | - |
| 1777893452 | 20.56° C | 63% | 1020 hPa | - | - | - | - |
| 1777892852 | 21.11° C | 61% | 1020 hPa | - | - | - | - |
| 1777892253 | 21.11° C | 62% | 1020 hPa | - | - | - | - |
| 1777891653 | 21.67° C | 60% | 1020.1 hPa | - | - | - | - |
| 1777891053 | 21.67° C | 62% | 1020.2 hPa | - | - | - | - |
| 1777890452 | 20.56° C | 63% | 1020.3 hPa | - | - | - | - |
| 1777889853 | 20.56° C | 67% | 1020.4 hPa | - | - | - | - |
| 1777889252 | 20.56° C | 65% | 1020.4 hPa | - | - | - | - |
| 1777888653 | 20° C | 69% | 1020.5 hPa | - | - | - | - |
| 1777888052 | 20° C | 70% | 1020.5 hPa | - | - | - | - |
| 1777887453 | 19.44° C | 71% | 1020.6 hPa | - | - | - | - |
| 1777886853 | 19.44° C | 73% | 1020.6 hPa | - | - | - | - |
| 1777886252 | 19.44° C | 72% | 1020.6 hPa | - | - | - | - |
| 1777885652 | 19.44° C | 72% | 1020.5 hPa | - | - | - | - |
| 1777885053 | 19.44° C | 73% | 1020.7 hPa | - | - | - | - |
| 1777884452 | 18.89° C | 77% | 1020.6 hPa | - | - | - | - |
| 1777883853 | 18.89° C | 76% | 1020.6 hPa | - | - | - | - |
| 1777883253 | 18.89° C | 77% | 1020.5 hPa | - | - | - | - |
* Rain since midnight (hover to see other rain measurements)
** Current wind speed in m/s (hover to see current wind gust speed)